createdAt,value
2023-02-19T00:02:41.824Z,1021.91
2023-02-19T00:12:42.354Z,1021.89
2023-02-19T00:22:42.208Z,1021.67
2023-02-19T00:32:42.606Z,1021.67
2023-02-19T00:42:42.647Z,1021.58
2023-02-19T00:52:42.977Z,1021.48
2023-02-19T01:02:43.013Z,1021.53
2023-02-19T01:12:43.449Z,1021.55
2023-02-19T01:22:43.528Z,1021.43
2023-02-19T01:32:43.715Z,1021.31
2023-02-19T01:42:43.761Z,1021.34
2023-02-19T01:52:44.202Z,1021.20
2023-02-19T02:02:44.253Z,1021.22
2023-02-19T02:12:45.286Z,1021.22
2023-02-19T02:22:44.822Z,1021.19
2023-02-19T02:32:46.869Z,1021.07
2023-02-19T02:42:45.127Z,1020.83
2023-02-19T02:52:47.205Z,1020.71
2023-02-19T03:02:45.450Z,1020.48
2023-02-19T03:12:45.871Z,1020.33
2023-02-19T03:22:45.912Z,1020.35
2023-02-19T03:32:46.364Z,1020.68
2023-02-19T03:42:46.469Z,1020.74
2023-02-19T03:52:46.727Z,1020.54
2023-02-19T04:02:46.823Z,1020.48
2023-02-19T04:12:46.983Z,1020.53
2023-02-19T04:22:47.020Z,1021.01
2023-02-19T04:32:47.323Z,1020.86
2023-02-19T04:42:47.353Z,1020.52
2023-02-19T04:52:47.656Z,1020.42
2023-02-19T05:02:47.696Z,1020.45
2023-02-19T05:12:48.093Z,1020.66
2023-02-19T05:22:48.261Z,1021.10
2023-02-19T05:32:48.496Z,1021.14
2023-02-19T05:42:48.518Z,1021.31
2023-02-19T05:52:48.826Z,1021.38
2023-02-19T06:02:48.903Z,1021.15
2023-02-19T06:12:49.203Z,1021.32
2023-02-19T06:22:49.282Z,1021.53
2023-02-19T06:32:49.423Z,1021.68
2023-02-19T06:42:49.466Z,1021.57
2023-02-19T06:52:49.845Z,1021.76
2023-02-19T07:02:49.911Z,1022.04
2023-02-19T07:12:50.226Z,1022.16
2023-02-19T07:22:50.262Z,1021.89
2023-02-19T07:32:50.560Z,1022.22
2023-02-19T07:42:50.617Z,1022.36
2023-02-19T07:52:50.920Z,1022.63
2023-02-19T08:02:50.960Z,1022.64
2023-02-19T08:12:51.195Z,1022.86
2023-02-19T08:22:51.469Z,1022.92
2023-02-19T08:32:51.704Z,1022.88
2023-02-19T08:42:51.730Z,1022.90
2023-02-19T08:52:51.965Z,1022.85
2023-02-19T09:02:52.180Z,1023.14
2023-02-19T09:12:52.440Z,1023.15
2023-02-19T09:22:52.671Z,1023.16
2023-02-19T09:32:53.020Z,1023.23
2023-02-19T09:42:53.058Z,1023.20
2023-02-19T09:52:53.391Z,1023.34
2023-02-19T10:02:53.623Z,1023.49
2023-02-19T10:12:53.705Z,1023.42
2023-02-19T10:22:53.765Z,1023.25
2023-02-19T10:32:54.033Z,1023.24
2023-02-19T10:42:54.306Z,1023.16
2023-02-19T10:52:54.297Z,1023.06
2023-02-19T11:02:54.346Z,1022.97
2023-02-19T11:12:56.617Z,1022.92
2023-02-19T11:22:54.827Z,1022.77
2023-02-19T11:32:55.146Z,1022.70
2023-02-19T11:42:55.363Z,1022.75
2023-02-19T11:52:55.415Z,1022.71
2023-02-19T12:02:55.555Z,1022.58
2023-02-19T12:12:55.887Z,1022.23
2023-02-19T12:22:55.779Z,1022.13
2023-02-19T12:32:56.044Z,1022.05
2023-02-19T12:42:56.089Z,1021.98
2023-02-19T12:52:57.441Z,1022.06
2023-02-19T13:02:56.482Z,1022.45
2023-02-19T13:12:56.584Z,1022.65
2023-02-19T13:22:57.055Z,1022.91
2023-02-19T13:32:56.983Z,1022.95
2023-02-19T13:42:57.110Z,1022.96
2023-02-19T13:52:57.238Z,1022.95
2023-02-19T14:02:57.473Z,1022.92
2023-02-19T14:12:59.715Z,1022.90
2023-02-19T14:22:57.634Z,1022.64
2023-02-19T14:33:10.288Z,1022.91
2023-02-19T14:43:01.084Z,1023.11
2023-02-19T14:52:58.406Z,1022.89
2023-02-19T15:02:58.287Z,1022.70
2023-02-19T15:12:58.819Z,1022.82
2023-02-19T15:22:59.920Z,1022.83
2023-02-19T15:32:59.995Z,1023.04
2023-02-19T15:42:59.315Z,1023.28
2023-02-19T15:52:59.777Z,1023.56
2023-02-19T16:02:59.376Z,1023.71
2023-02-19T16:13:00.646Z,1023.74
2023-02-19T16:22:59.822Z,1023.90
2023-02-19T16:33:00.005Z,1024.00
2023-02-19T16:43:00.150Z,1024.06
2023-02-19T16:53:00.423Z,1023.92
2023-02-19T17:03:00.449Z,1024.05
2023-02-19T17:13:00.690Z,1024.32
2023-02-19T17:23:00.626Z,1024.62
2023-02-19T17:33:01.149Z,1024.62
2023-02-19T17:43:01.392Z,1024.76
2023-02-19T17:53:02.468Z,1024.68
2023-02-19T18:03:01.651Z,1024.76
2023-02-19T18:13:01.627Z,1024.76
2023-02-19T18:23:01.965Z,1024.73
2023-02-19T18:33:01.902Z,1024.76
2023-02-19T18:43:02.934Z,1025.04
2023-02-19T18:53:02.424Z,1025.32
2023-02-19T19:03:02.645Z,1025.24
2023-02-19T19:13:02.896Z,1025.27
2023-02-19T19:23:03.062Z,1025.35
2023-02-19T19:33:03.526Z,1025.57
2023-02-19T19:43:03.519Z,1025.50
2023-02-19T19:53:03.752Z,1025.48
2023-02-19T20:03:03.985Z,1025.43
2023-02-19T20:13:04.237Z,1025.43
2023-02-19T20:23:04.456Z,1025.36
2023-02-19T20:33:07.975Z,1025.41
2023-02-19T20:43:04.741Z,1025.40
2023-02-19T20:53:05.037Z,1025.59
2023-02-19T21:03:04.946Z,1025.61
2023-02-19T21:13:05.927Z,1025.64
2023-02-19T21:23:05.217Z,1025.63
2023-02-19T21:33:05.218Z,1025.71
2023-02-19T21:43:06.287Z,1025.76
2023-02-19T21:53:05.807Z,1025.72
2023-02-19T22:03:05.546Z,1025.77
2023-02-19T22:13:05.747Z,1025.75
2023-02-19T22:23:06.018Z,1025.86
2023-02-19T22:33:07.965Z,1025.98
2023-02-19T22:43:06.002Z,1025.98
2023-02-19T22:53:06.493Z,1025.95
2023-02-19T23:03:06.333Z,1026.10
2023-02-19T23:13:06.765Z,1026.01
2023-02-19T23:23:06.794Z,1025.95
2023-02-19T23:33:07.137Z,1025.84
2023-02-19T23:43:07.157Z,1025.84
2023-02-19T23:53:08.530Z,1025.88
